sensor_id;sensor_type;location;lat;lon;timestamp;P1;durP1;ratioP1;P2;durP2;ratioP2
12635;SDS011;6383;50.830;7.210;2023-02-08T00:02:17;20.77;;;11.65;;
12635;SDS011;6383;50.830;7.210;2023-02-08T00:04:46;15.90;;;11.35;;
12635;SDS011;6383;50.830;7.210;2023-02-08T00:07:17;15.52;;;10.88;;
12635;SDS011;6383;50.830;7.210;2023-02-08T00:09:46;18.27;;;11.45;;
12635;SDS011;6383;50.830;7.210;2023-02-08T00:12:15;15.57;;;10.02;;
12635;SDS011;6383;50.830;7.210;2023-02-08T00:14:44;18.45;;;9.30;;
12635;SDS011;6383;50.830;7.210;2023-02-08T00:17:14;14.63;;;9.38;;
12635;SDS011;6383;50.830;7.210;2023-02-08T00:19:43;14.50;;;10.00;;
12635;SDS011;6383;50.830;7.210;2023-02-08T00:22:12;16.00;;;10.07;;
12635;SDS011;6383;50.830;7.210;2023-02-08T00:24:42;13.98;;;9.98;;
12635;SDS011;6383;50.830;7.210;2023-02-08T00:27:11;15.30;;;9.82;;
12635;SDS011;6383;50.830;7.210;2023-02-08T00:29:42;13.95;;;9.50;;
12635;SDS011;6383;50.830;7.210;2023-02-08T00:32:11;13.80;;;8.52;;
12635;SDS011;6383;50.830;7.210;2023-02-08T00:34:40;10.20;;;7.88;;
12635;SDS011;6383;50.830;7.210;2023-02-08T00:37:09;14.50;;;8.27;;
12635;SDS011;6383;50.830;7.210;2023-02-08T00:39:39;13.25;;;9.25;;
12635;SDS011;6383;50.830;7.210;2023-02-08T00:42:09;14.98;;;9.70;;
12635;SDS011;6383;50.830;7.210;2023-02-08T00:44:38;13.73;;;8.13;;
12635;SDS011;6383;50.830;7.210;2023-02-08T00:47:07;9.60;;;7.70;;
12635;SDS011;6383;50.830;7.210;2023-02-08T00:49:35;12.75;;;7.82;;
12635;SDS011;6383;50.830;7.210;2023-02-08T00:52:03;9.25;;;7.13;;
12635;SDS011;6383;50.830;7.210;2023-02-08T00:54:32;13.50;;;8.15;;
12635;SDS011;6383;50.830;7.210;2023-02-08T00:57:01;11.40;;;8.55;;
12635;SDS011;6383;50.830;7.210;2023-02-08T00:59:31;11.20;;;8.68;;
12635;SDS011;6383;50.830;7.210;2023-02-08T01:02:01;13.40;;;9.25;;
12635;SDS011;6383;50.830;7.210;2023-02-08T01:04:30;14.98;;;9.25;;
12635;SDS011;6383;50.830;7.210;2023-02-08T01:06:59;14.63;;;10.55;;
12635;SDS011;6383;50.830;7.210;2023-02-08T01:09:28;14.00;;;9.27;;
12635;SDS011;6383;50.830;7.210;2023-02-08T01:11:57;13.18;;;8.43;;
12635;SDS011;6383;50.830;7.210;2023-02-08T01:14:26;10.90;;;8.35;;
12635;SDS011;6383;50.830;7.210;2023-02-08T01:16:57;13.57;;;9.25;;
12635;SDS011;6383;50.830;7.210;2023-02-08T01:19:26;17.25;;;9.25;;
12635;SDS011;6383;50.830;7.210;2023-02-08T01:21:55;13.85;;;10.13;;
12635;SDS011;6383;50.830;7.210;2023-02-08T01:24:24;13.05;;;9.27;;
12635;SDS011;6383;50.830;7.210;2023-02-08T01:26:56;14.98;;;9.93;;
12635;SDS011;6383;50.830;7.210;2023-02-08T01:29:25;10.85;;;8.48;;
12635;SDS011;6383;50.830;7.210;2023-02-08T01:31:54;9.38;;;7.05;;
12635;SDS011;6383;50.830;7.210;2023-02-08T01:34:24;8.95;;;7.25;;
12635;SDS011;6383;50.830;7.210;2023-02-08T01:36:53;10.27;;;7.40;;
12635;SDS011;6383;50.830;7.210;2023-02-08T01:39:24;11.85;;;7.38;;
12635;SDS011;6383;50.830;7.210;2023-02-08T01:41:53;12.23;;;8.30;;
12635;SDS011;6383;50.830;7.210;2023-02-08T01:47:44;8.82;;;7.68;;
12635;SDS011;6383;50.830;7.210;2023-02-08T01:50:18;9.20;;;6.70;;
12635;SDS011;6383;50.830;7.210;2023-02-08T01:52:51;8.32;;;6.95;;
12635;SDS011;6383;50.830;7.210;2023-02-08T01:55:21;9.50;;;7.22;;
12635;SDS011;6383;50.830;7.210;2023-02-08T01:57:54;9.60;;;7.13;;
12635;SDS011;6383;50.830;7.210;2023-02-08T02:00:27;9.50;;;6.70;;
12635;SDS011;6383;50.830;7.210;2023-02-08T02:02:56;7.88;;;6.53;;
12635;SDS011;6383;50.830;7.210;2023-02-08T02:05:29;10.15;;;7.20;;
12635;SDS011;6383;50.830;7.210;2023-02-08T02:08:03;8.25;;;6.80;;
12635;SDS011;6383;50.830;7.210;2023-02-08T02:10:34;8.35;;;7.15;;
12635;SDS011;6383;50.830;7.210;2023-02-08T02:13:04;11.43;;;8.07;;
12635;SDS011;6383;50.830;7.210;2023-02-08T02:15:33;10.18;;;7.47;;
12635;SDS011;6383;50.830;7.210;2023-02-08T02:18:03;10.25;;;8.02;;
12635;SDS011;6383;50.830;7.210;2023-02-08T02:20:38;10.35;;;8.65;;
12635;SDS011;6383;50.830;7.210;2023-02-08T02:29:38;12.07;;;7.55;;
12635;SDS011;6383;50.830;7.210;2023-02-08T02:32:39;10.18;;;8.13;;
12635;SDS011;6383;50.830;7.210;2023-02-08T02:35:23;10.60;;;7.90;;
12635;SDS011;6383;50.830;7.210;2023-02-08T02:38:05;11.48;;;8.93;;
12635;SDS011;6383;50.830;7.210;2023-02-08T02:40:42;11.88;;;8.73;;
12635;SDS011;6383;50.830;7.210;2023-02-08T02:43:23;12.93;;;9.35;;
12635;SDS011;6383;50.830;7.210;2023-02-08T02:46:12;12.23;;;9.07;;
12635;SDS011;6383;50.830;7.210;2023-02-08T02:48:51;10.55;;;8.15;;
12635;SDS011;6383;50.830;7.210;2023-02-08T02:51:27;14.00;;;9.52;;
12635;SDS011;6383;50.830;7.210;2023-02-08T02:54:04;12.60;;;8.82;;
12635;SDS011;6383;50.830;7.210;2023-02-08T02:56:43;10.73;;;8.50;;
12635;SDS011;6383;50.830;7.210;2023-02-08T02:59:13;14.40;;;9.63;;
12635;SDS011;6383;50.830;7.210;2023-02-08T03:01:45;13.02;;;8.77;;
12635;SDS011;6383;50.830;7.210;2023-02-08T03:04:16;13.00;;;8.50;;
12635;SDS011;6383;50.830;7.210;2023-02-08T03:06:53;10.25;;;8.48;;
12635;SDS011;6383;50.830;7.210;2023-02-08T03:09:34;12.82;;;8.93;;
12635;SDS011;6383;50.830;7.210;2023-02-08T03:12:25;13.75;;;8.85;;
12635;SDS011;6383;50.830;7.210;2023-02-08T03:15:05;12.10;;;8.65;;
12635;SDS011;6383;50.830;7.210;2023-02-08T03:17:46;11.93;;;7.95;;
12635;SDS011;6383;50.830;7.210;2023-02-08T03:20:29;12.52;;;9.57;;
12635;SDS011;6383;50.830;7.210;2023-02-08T03:23:09;14.43;;;7.90;;
12635;SDS011;6383;50.830;7.210;2023-02-08T03:25:45;11.40;;;7.72;;
12635;SDS011;6383;50.830;7.210;2023-02-08T03:28:20;12.05;;;8.60;;
12635;SDS011;6383;50.830;7.210;2023-02-08T03:30:54;11.13;;;8.47;;
12635;SDS011;6383;50.830;7.210;2023-02-08T03:33:32;10.57;;;8.13;;
12635;SDS011;6383;50.830;7.210;2023-02-08T03:36:09;14.85;;;8.57;;
12635;SDS011;6383;50.830;7.210;2023-02-08T03:38:47;11.35;;;8.10;;
12635;SDS011;6383;50.830;7.210;2023-02-08T03:41:19;13.00;;;9.00;;
12635;SDS011;6383;50.830;7.210;2023-02-08T03:44:00;12.07;;;8.38;;
12635;SDS011;6383;50.830;7.210;2023-02-08T03:46:36;11.32;;;8.70;;
12635;SDS011;6383;50.830;7.210;2023-02-08T03:49:10;13.65;;;9.77;;
12635;SDS011;6383;50.830;7.210;2023-02-08T03:51:46;11.68;;;8.65;;
12635;SDS011;6383;50.830;7.210;2023-02-08T03:54:17;10.55;;;8.98;;
12635;SDS011;6383;50.830;7.210;2023-02-08T03:56:50;16.30;;;10.60;;
12635;SDS011;6383;50.830;7.210;2023-02-08T03:59:24;13.98;;;9.15;;
12635;SDS011;6383;50.830;7.210;2023-02-08T04:01:59;11.50;;;8.73;;
12635;SDS011;6383;50.830;7.210;2023-02-08T04:04:31;15.10;;;8.70;;
12635;SDS011;6383;50.830;7.210;2023-02-08T04:07:04;11.85;;;8.05;;
12635;SDS011;6383;50.830;7.210;2023-02-08T04:09:33;13.95;;;8.88;;
12635;SDS011;6383;50.830;7.210;2023-02-08T04:12:02;11.25;;;8.43;;
12635;SDS011;6383;50.830;7.210;2023-02-08T04:14:32;12.73;;;9.38;;
12635;SDS011;6383;50.830;7.210;2023-02-08T04:17:01;11.35;;;8.85;;
12635;SDS011;6383;50.830;7.210;2023-02-08T04:19:30;14.40;;;9.82;;
12635;SDS011;6383;50.830;7.210;2023-02-08T04:22:00;11.60;;;8.45;;
12635;SDS011;6383;50.830;7.210;2023-02-08T04:24:30;11.98;;;8.65;;
12635;SDS011;6383;50.830;7.210;2023-02-08T04:26:59;15.75;;;8.48;;
12635;SDS011;6383;50.830;7.210;2023-02-08T04:29:28;11.95;;;8.73;;
12635;SDS011;6383;50.830;7.210;2023-02-08T04:31:57;13.43;;;8.75;;
12635;SDS011;6383;50.830;7.210;2023-02-08T04:34:27;11.38;;;8.52;;
12635;SDS011;6383;50.830;7.210;2023-02-08T04:36:56;13.23;;;8.63;;
12635;SDS011;6383;50.830;7.210;2023-02-08T04:39:25;12.32;;;9.02;;
12635;SDS011;6383;50.830;7.210;2023-02-08T04:41:56;12.15;;;8.40;;
12635;SDS011;6383;50.830;7.210;2023-02-08T04:44:25;13.30;;;8.90;;
12635;SDS011;6383;50.830;7.210;2023-02-08T04:46:54;15.13;;;8.93;;
12635;SDS011;6383;50.830;7.210;2023-02-08T04:49:23;15.05;;;9.77;;
12635;SDS011;6383;50.830;7.210;2023-02-08T04:51:52;12.23;;;8.70;;
12635;SDS011;6383;50.830;7.210;2023-02-08T04:54:21;11.55;;;8.57;;
12635;SDS011;6383;50.830;7.210;2023-02-08T04:56:51;12.52;;;9.40;;
12635;SDS011;6383;50.830;7.210;2023-02-08T04:59:21;10.90;;;8.35;;
12635;SDS011;6383;50.830;7.210;2023-02-08T05:01:51;11.90;;;8.35;;
12635;SDS011;6383;50.830;7.210;2023-02-08T05:04:20;13.57;;;9.88;;
12635;SDS011;6383;50.830;7.210;2023-02-08T05:06:49;13.82;;;9.73;;
12635;SDS011;6383;50.830;7.210;2023-02-08T05:09:18;13.30;;;10.02;;
12635;SDS011;6383;50.830;7.210;2023-02-08T05:11:47;12.95;;;9.07;;
12635;SDS011;6383;50.830;7.210;2023-02-08T05:14:16;12.23;;;9.32;;
12635;SDS011;6383;50.830;7.210;2023-02-08T05:16:47;13.65;;;9.32;;
12635;SDS011;6383;50.830;7.210;2023-02-08T05:19:16;13.13;;;9.30;;
12635;SDS011;6383;50.830;7.210;2023-02-08T05:21:45;13.30;;;8.88;;
12635;SDS011;6383;50.830;7.210;2023-02-08T05:24:14;13.13;;;9.38;;
12635;SDS011;6383;50.830;7.210;2023-02-08T05:26:44;14.25;;;9.02;;
12635;SDS011;6383;50.830;7.210;2023-02-08T05:29:13;11.10;;;8.88;;
12635;SDS011;6383;50.830;7.210;2023-02-08T05:31:42;13.60;;;9.95;;
12635;SDS011;6383;50.830;7.210;2023-02-08T05:34:13;15.73;;;9.82;;
12635;SDS011;6383;50.830;7.210;2023-02-08T05:36:42;12.32;;;10.18;;
12635;SDS011;6383;50.830;7.210;2023-02-08T05:39:11;18.20;;;10.95;;
12635;SDS011;6383;50.830;7.210;2023-02-08T05:41:40;13.68;;;10.25;;
12635;SDS011;6383;50.830;7.210;2023-02-08T05:44:09;12.93;;;10.80;;
12635;SDS011;6383;50.830;7.210;2023-02-08T05:46:38;16.30;;;10.02;;
12635;SDS011;6383;50.830;7.210;2023-02-08T05:49:06;16.50;;;10.52;;
12635;SDS011;6383;50.830;7.210;2023-02-08T05:51:35;16.75;;;10.48;;
12635;SDS011;6383;50.830;7.210;2023-02-08T05:54:04;16.85;;;10.40;;
12635;SDS011;6383;50.830;7.210;2023-02-08T05:56:33;13.93;;;9.82;;
12635;SDS011;6383;50.830;7.210;2023-02-08T05:59:02;13.75;;;10.00;;
12635;SDS011;6383;50.830;7.210;2023-02-08T06:01:32;15.30;;;9.75;;
12635;SDS011;6383;50.830;7.210;2023-02-08T06:04:01;11.70;;;8.82;;
12635;SDS011;6383;50.830;7.210;2023-02-08T06:06:30;15.23;;;10.32;;
12635;SDS011;6383;50.830;7.210;2023-02-08T06:09:01;13.48;;;9.77;;
12635;SDS011;6383;50.830;7.210;2023-02-08T06:11:31;15.07;;;9.75;;
12635;SDS011;6383;50.830;7.210;2023-02-08T06:14:00;17.85;;;11.80;;
12635;SDS011;6383;50.830;7.210;2023-02-08T06:16:29;15.60;;;11.63;;
12635;SDS011;6383;50.830;7.210;2023-02-08T06:18:58;13.77;;;10.60;;
12635;SDS011;6383;50.830;7.210;2023-02-08T06:21:28;16.80;;;10.52;;
12635;SDS011;6383;50.830;7.210;2023-02-08T06:23:57;16.17;;;10.65;;
12635;SDS011;6383;50.830;7.210;2023-02-08T06:26:27;16.20;;;10.38;;
12635;SDS011;6383;50.830;7.210;2023-02-08T06:28:57;12.60;;;9.68;;
12635;SDS011;6383;50.830;7.210;2023-02-08T06:31:26;13.07;;;10.40;;
12635;SDS011;6383;50.830;7.210;2023-02-08T06:33:55;14.25;;;10.00;;
12635;SDS011;6383;50.830;7.210;2023-02-08T06:36:24;15.30;;;10.90;;
12635;SDS011;6383;50.830;7.210;2023-02-08T06:38:54;14.65;;;9.88;;
12635;SDS011;6383;50.830;7.210;2023-02-08T06:41:23;15.00;;;11.05;;
12635;SDS011;6383;50.830;7.210;2023-02-08T06:43:53;15.40;;;10.45;;
12635;SDS011;6383;50.830;7.210;2023-02-08T06:46:25;15.25;;;10.60;;
12635;SDS011;6383;50.830;7.210;2023-02-08T06:48:54;16.60;;;11.57;;
12635;SDS011;6383;50.830;7.210;2023-02-08T06:51:25;19.17;;;12.15;;
12635;SDS011;6383;50.830;7.210;2023-02-08T06:53:54;12.40;;;10.07;;
12635;SDS011;6383;50.830;7.210;2023-02-08T06:56:23;15.55;;;10.93;;
12635;SDS011;6383;50.830;7.210;2023-02-08T06:58:54;14.38;;;10.15;;
12635;SDS011;6383;50.830;7.210;2023-02-08T07:01:23;16.65;;;11.68;;
12635;SDS011;6383;50.830;7.210;2023-02-08T07:03:53;14.65;;;11.07;;
12635;SDS011;6383;50.830;7.210;2023-02-08T07:06:22;17.83;;;11.88;;
12635;SDS011;6383;50.830;7.210;2023-02-08T07:08:51;18.20;;;12.57;;
12635;SDS011;6383;50.830;7.210;2023-02-08T07:11:20;24.00;;;13.25;;
12635;SDS011;6383;50.830;7.210;2023-02-08T07:13:50;23.70;;;15.40;;
12635;SDS011;6383;50.830;7.210;2023-02-08T07:16:22;24.60;;;15.35;;
12635;SDS011;6383;50.830;7.210;2023-02-08T07:18:51;19.33;;;12.90;;
12635;SDS011;6383;50.830;7.210;2023-02-08T07:21:20;18.55;;;13.30;;
12635;SDS011;6383;50.830;7.210;2023-02-08T07:23:49;18.92;;;12.38;;
12635;SDS011;6383;50.830;7.210;2023-02-08T07:26:19;17.65;;;12.18;;
12635;SDS011;6383;50.830;7.210;2023-02-08T07:28:48;18.88;;;12.70;;
12635;SDS011;6383;50.830;7.210;2023-02-08T07:31:17;19.60;;;12.50;;
12635;SDS011;6383;50.830;7.210;2023-02-08T07:33:48;18.38;;;12.93;;
12635;SDS011;6383;50.830;7.210;2023-02-08T07:36:17;16.38;;;12.02;;
12635;SDS011;6383;50.830;7.210;2023-02-08T07:38:46;14.38;;;10.77;;
12635;SDS011;6383;50.830;7.210;2023-02-08T07:41:15;15.15;;;9.88;;
12635;SDS011;6383;50.830;7.210;2023-02-08T07:43:44;18.58;;;11.00;;
12635;SDS011;6383;50.830;7.210;2023-02-08T07:46:14;14.55;;;9.73;;
12635;SDS011;6383;50.830;7.210;2023-02-08T07:48:45;12.80;;;10.02;;
12635;SDS011;6383;50.830;7.210;2023-02-08T07:51:17;14.73;;;10.45;;
12635;SDS011;6383;50.830;7.210;2023-02-08T07:53:46;15.60;;;10.15;;
12635;SDS011;6383;50.830;7.210;2023-02-08T07:56:16;18.45;;;12.18;;
12635;SDS011;6383;50.830;7.210;2023-02-08T07:58:45;23.85;;;14.52;;
12635;SDS011;6383;50.830;7.210;2023-02-08T08:01:14;24.92;;;17.05;;
12635;SDS011;6383;50.830;7.210;2023-02-08T08:03:46;21.25;;;14.52;;
12635;SDS011;6383;50.830;7.210;2023-02-08T08:06:17;19.55;;;13.98;;
12635;SDS011;6383;50.830;7.210;2023-02-08T08:08:46;19.23;;;14.10;;
12635;SDS011;6383;50.830;7.210;2023-02-08T08:11:16;18.42;;;12.57;;
12635;SDS011;6383;50.830;7.210;2023-02-08T08:13:46;18.50;;;12.75;;
12635;SDS011;6383;50.830;7.210;2023-02-08T08:16:16;23.77;;;14.30;;
12635;SDS011;6383;50.830;7.210;2023-02-08T08:18:46;21.20;;;13.85;;
12635;SDS011;6383;50.830;7.210;2023-02-08T08:21:17;22.63;;;14.23;;
12635;SDS011;6383;50.830;7.210;2023-02-08T08:23:46;21.95;;;15.05;;
12635;SDS011;6383;50.830;7.210;2023-02-08T08:26:16;21.90;;;15.05;;
12635;SDS011;6383;50.830;7.210;2023-02-08T08:28:46;22.77;;;15.80;;
12635;SDS011;6383;50.830;7.210;2023-02-08T08:31:17;19.98;;;15.05;;
12635;SDS011;6383;50.830;7.210;2023-02-08T08:33:47;19.50;;;13.25;;
12635;SDS011;6383;50.830;7.210;2023-02-08T08:36:18;18.33;;;13.18;;
12635;SDS011;6383;50.830;7.210;2023-02-08T08:38:47;16.75;;;12.57;;
12635;SDS011;6383;50.830;7.210;2023-02-08T08:41:16;18.52;;;11.98;;
12635;SDS011;6383;50.830;7.210;2023-02-08T08:43:45;16.13;;;11.02;;
12635;SDS011;6383;50.830;7.210;2023-02-08T08:46:14;15.90;;;11.45;;
12635;SDS011;6383;50.830;7.210;2023-02-08T08:48:44;16.80;;;10.80;;
12635;SDS011;6383;50.830;7.210;2023-02-08T08:51:14;17.77;;;10.95;;
12635;SDS011;6383;50.830;7.210;2023-02-08T08:53:44;17.25;;;10.50;;
12635;SDS011;6383;50.830;7.210;2023-02-08T08:56:13;11.30;;;9.52;;
12635;SDS011;6383;50.830;7.210;2023-02-08T08:58:42;12.95;;;9.48;;
12635;SDS011;6383;50.830;7.210;2023-02-08T09:01:12;14.98;;;10.05;;
12635;SDS011;6383;50.830;7.210;2023-02-08T09:03:41;14.82;;;10.23;;
12635;SDS011;6383;50.830;7.210;2023-02-08T09:06:10;15.35;;;10.90;;
12635;SDS011;6383;50.830;7.210;2023-02-08T09:08:39;13.63;;;9.63;;
12635;SDS011;6383;50.830;7.210;2023-02-08T09:11:09;13.20;;;10.05;;
12635;SDS011;6383;50.830;7.210;2023-02-08T09:13:39;16.00;;;10.52;;
12635;SDS011;6383;50.830;7.210;2023-02-08T09:16:08;12.52;;;9.60;;
12635;SDS011;6383;50.830;7.210;2023-02-08T09:18:40;13.02;;;9.23;;
12635;SDS011;6383;50.830;7.210;2023-02-08T09:21:10;12.93;;;8.95;;
12635;SDS011;6383;50.830;7.210;2023-02-08T09:23:40;14.70;;;10.13;;
12635;SDS011;6383;50.830;7.210;2023-02-08T09:26:11;11.88;;;9.43;;
12635;SDS011;6383;50.830;7.210;2023-02-08T09:28:42;13.93;;;9.57;;
12635;SDS011;6383;50.830;7.210;2023-02-08T09:31:12;18.33;;;9.68;;
12635;SDS011;6383;50.830;7.210;2023-02-08T09:33:45;15.55;;;9.15;;
12635;SDS011;6383;50.830;7.210;2023-02-08T09:36:15;17.08;;;9.63;;
12635;SDS011;6383;50.830;7.210;2023-02-08T09:38:45;31.70;;;10.85;;
12635;SDS011;6383;50.830;7.210;2023-02-08T09:41:20;13.60;;;9.05;;
12635;SDS011;6383;50.830;7.210;2023-02-08T09:44:01;12.85;;;9.60;;
12635;SDS011;6383;50.830;7.210;2023-02-08T09:46:42;11.27;;;9.13;;
12635;SDS011;6383;50.830;7.210;2023-02-08T09:49:21;12.60;;;9.05;;
12635;SDS011;6383;50.830;7.210;2023-02-08T09:51:54;22.83;;;9.68;;
12635;SDS011;6383;50.830;7.210;2023-02-08T09:54:27;16.83;;;9.57;;
12635;SDS011;6383;50.830;7.210;2023-02-08T09:57:03;14.93;;;9.35;;
12635;SDS011;6383;50.830;7.210;2023-02-08T09:59:37;10.07;;;6.78;;
12635;SDS011;6383;50.830;7.210;2023-02-08T10:02:16;7.60;;;6.82;;
12635;SDS011;6383;50.830;7.210;2023-02-08T10:07:23;8.65;;;6.30;;
12635;SDS011;6383;50.830;7.210;2023-02-08T10:09:53;8.40;;;5.85;;
12635;SDS011;6383;50.830;7.210;2023-02-08T10:12:29;9.00;;;6.28;;
12635;SDS011;6383;50.830;7.210;2023-02-08T10:15:08;9.23;;;5.50;;
12635;SDS011;6383;50.830;7.210;2023-02-08T10:17:49;10.48;;;5.95;;
12635;SDS011;6383;50.830;7.210;2023-02-08T10:20:32;10.10;;;6.30;;
12635;SDS011;6383;50.830;7.210;2023-02-08T10:23:15;7.30;;;5.60;;
12635;SDS011;6383;50.830;7.210;2023-02-08T10:26:00;10.38;;;5.60;;
12635;SDS011;6383;50.830;7.210;2023-02-08T10:31:49;11.13;;;5.88;;
12635;SDS011;6383;50.830;7.210;2023-02-08T10:34:29;10.88;;;6.32;;
12635;SDS011;6383;50.830;7.210;2023-02-08T10:37:09;7.55;;;5.85;;
12635;SDS011;6383;50.830;7.210;2023-02-08T10:39:42;12.18;;;6.75;;
12635;SDS011;6383;50.830;7.210;2023-02-08T10:42:13;9.52;;;6.13;;
12635;SDS011;6383;50.830;7.210;2023-02-08T10:44:49;7.32;;;5.43;;
12635;SDS011;6383;50.830;7.210;2023-02-08T10:47:31;7.22;;;5.88;;
12635;SDS011;6383;50.830;7.210;2023-02-08T10:50:06;10.55;;;6.82;;
12635;SDS011;6383;50.830;7.210;2023-02-08T10:52:43;7.45;;;6.10;;
12635;SDS011;6383;50.830;7.210;2023-02-08T10:55:13;6.90;;;6.20;;
12635;SDS011;6383;50.830;7.210;2023-02-08T10:57:43;7.38;;;6.68;;
12635;SDS011;6383;50.830;7.210;2023-02-08T11:00:18;9.63;;;5.95;;
12635;SDS011;6383;50.830;7.210;2023-02-08T11:02:49;8.13;;;6.22;;
12635;SDS011;6383;50.830;7.210;2023-02-08T11:05:19;6.78;;;6.07;;
12635;SDS011;6383;50.830;7.210;2023-02-08T11:08:05;6.70;;;5.68;;
12635;SDS011;6383;50.830;7.210;2023-02-08T11:10:36;7.13;;;5.30;;
12635;SDS011;6383;50.830;7.210;2023-02-08T11:13:13;6.80;;;5.50;;
12635;SDS011;6383;50.830;7.210;2023-02-08T11:15:46;9.52;;;5.28;;
12635;SDS011;6383;50.830;7.210;2023-02-08T11:18:19;7.88;;;5.47;;
12635;SDS011;6383;50.830;7.210;2023-02-08T11:20:51;6.38;;;5.28;;
12635;SDS011;6383;50.830;7.210;2023-02-08T11:23:24;6.53;;;5.82;;
12635;SDS011;6383;50.830;7.210;2023-02-08T11:26:11;6.82;;;6.20;;
12635;SDS011;6383;50.830;7.210;2023-02-08T11:28:43;7.07;;;6.13;;
12635;SDS011;6383;50.830;7.210;2023-02-08T11:31:27;6.60;;;5.30;;
12635;SDS011;6383;50.830;7.210;2023-02-08T11:33:57;8.60;;;6.05;;
12635;SDS011;6383;50.830;7.210;2023-02-08T11:38:57;6.68;;;5.82;;
12635;SDS011;6383;50.830;7.210;2023-02-08T11:41:29;6.85;;;6.18;;
12635;SDS011;6383;50.830;7.210;2023-02-08T11:44:00;7.25;;;6.03;;
12635;SDS011;6383;50.830;7.210;2023-02-08T11:46:34;6.22;;;5.68;;
12635;SDS011;6383;50.830;7.210;2023-02-08T11:49:06;6.72;;;6.10;;
12635;SDS011;6383;50.830;7.210;2023-02-08T11:51:48;6.25;;;5.65;;
12635;SDS011;6383;50.830;7.210;2023-02-08T11:54:32;6.50;;;5.90;;
12635;SDS011;6383;50.830;7.210;2023-02-08T11:57:12;6.60;;;5.88;;
12635;SDS011;6383;50.830;7.210;2023-02-08T11:59:43;6.37;;;5.87;;
12635;SDS011;6383;50.830;7.210;2023-02-08T12:10:20;6.43;;;4.82;;
12635;SDS011;6383;50.830;7.210;2023-02-08T12:13:08;4.80;;;4.40;;
12635;SDS011;6383;50.830;7.210;2023-02-08T12:15:50;7.90;;;5.40;;
12635;SDS011;6383;50.830;7.210;2023-02-08T12:18:38;5.30;;;4.80;;
12635;SDS011;6383;50.830;7.210;2023-02-08T12:21:19;5.13;;;4.22;;
12635;SDS011;6383;50.830;7.210;2023-02-08T12:23:52;6.20;;;5.22;;
12635;SDS011;6383;50.830;7.210;2023-02-08T12:26:31;5.25;;;4.75;;
12635;SDS011;6383;50.830;7.210;2023-02-08T12:29:12;7.70;;;5.50;;
12635;SDS011;6383;50.830;7.210;2023-02-08T12:32:05;5.63;;;4.80;;
12635;SDS011;6383;50.830;7.210;2023-02-08T12:34:51;7.75;;;5.05;;
12635;SDS011;6383;50.830;7.210;2023-02-08T12:37:35;7.97;;;4.55;;
12635;SDS011;6383;50.830;7.210;2023-02-08T12:40:33;6.10;;;4.53;;
12635;SDS011;6383;50.830;7.210;2023-02-08T12:43:27;5.43;;;4.93;;
12635;SDS011;6383;50.830;7.210;2023-02-08T12:46:09;5.45;;;4.95;;
12635;SDS011;6383;50.830;7.210;2023-02-08T12:52:04;7.25;;;5.22;;
12635;SDS011;6383;50.830;7.210;2023-02-08T12:54:45;5.20;;;4.43;;
12635;SDS011;6383;50.830;7.210;2023-02-08T12:57:18;4.97;;;4.15;;
12635;SDS011;6383;50.830;7.210;2023-02-08T12:59:51;4.15;;;3.65;;
12635;SDS011;6383;50.830;7.210;2023-02-08T13:02:27;8.02;;;4.20;;
12635;SDS011;6383;50.830;7.210;2023-02-08T13:05:02;4.55;;;4.05;;
12635;SDS011;6383;50.830;7.210;2023-02-08T13:07:37;4.43;;;3.88;;
12635;SDS011;6383;50.830;7.210;2023-02-08T13:10:11;4.47;;;3.53;;
12635;SDS011;6383;50.830;7.210;2023-02-08T13:12:53;7.40;;;4.60;;
12635;SDS011;6383;50.830;7.210;2023-02-08T13:15:26;4.20;;;3.53;;
12635;SDS011;6383;50.830;7.210;2023-02-08T13:18:03;4.88;;;4.07;;
12635;SDS011;6383;50.830;7.210;2023-02-08T13:20:40;3.97;;;3.45;;
12635;SDS011;6383;50.830;7.210;2023-02-08T13:23:14;4.63;;;2.75;;
12635;SDS011;6383;50.830;7.210;2023-02-08T13:25:48;3.75;;;2.70;;
12635;SDS011;6383;50.830;7.210;2023-02-08T13:28:27;3.33;;;2.88;;
12635;SDS011;6383;50.830;7.210;2023-02-08T13:30:58;2.60;;;2.40;;
12635;SDS011;6383;50.830;7.210;2023-02-08T13:33:33;3.67;;;2.47;;
12635;SDS011;6383;50.830;7.210;2023-02-08T13:36:17;5.13;;;3.22;;
12635;SDS011;6383;50.830;7.210;2023-02-08T13:38:54;4.60;;;3.60;;
12635;SDS011;6383;50.830;7.210;2023-02-08T13:41:26;4.30;;;2.78;;
12635;SDS011;6383;50.830;7.210;2023-02-08T13:43:57;4.80;;;2.42;;
12635;SDS011;6383;50.830;7.210;2023-02-08T13:46:34;5.03;;;2.63;;
12635;SDS011;6383;50.830;7.210;2023-02-08T13:49:05;3.03;;;2.42;;
12635;SDS011;6383;50.830;7.210;2023-02-08T13:54:26;5.93;;;4.50;;
12635;SDS011;6383;50.830;7.210;2023-02-08T13:56:55;2.80;;;2.60;;
12635;SDS011;6383;50.830;7.210;2023-02-08T13:59:32;3.17;;;2.85;;
12635;SDS011;6383;50.830;7.210;2023-02-08T14:08:00;2.92;;;2.55;;
12635;SDS011;6383;50.830;7.210;2023-02-08T14:10:33;3.15;;;2.50;;
12635;SDS011;6383;50.830;7.210;2023-02-08T14:13:15;3.10;;;2.60;;
12635;SDS011;6383;50.830;7.210;2023-02-08T14:18:54;2.45;;;2.25;;
12635;SDS011;6383;50.830;7.210;2023-02-08T14:21:35;2.75;;;2.38;;
12635;SDS011;6383;50.830;7.210;2023-02-08T14:24:18;3.35;;;2.95;;
12635;SDS011;6383;50.830;7.210;2023-02-08T14:26:51;4.28;;;2.60;;
12635;SDS011;6383;50.830;7.210;2023-02-08T14:29:33;5.63;;;4.35;;
12635;SDS011;6383;50.830;7.210;2023-02-08T14:32:03;6.40;;;3.80;;
12635;SDS011;6383;50.830;7.210;2023-02-08T14:34:34;4.03;;;3.28;;
12635;SDS011;6383;50.830;7.210;2023-02-08T14:43:02;7.43;;;2.75;;
12635;SDS011;6383;50.830;7.210;2023-02-08T14:45:52;3.72;;;2.95;;
12635;SDS011;6383;50.830;7.210;2023-02-08T14:48:22;7.28;;;4.78;;
12635;SDS011;6383;50.830;7.210;2023-02-08T14:50:56;3.92;;;2.65;;
12635;SDS011;6383;50.830;7.210;2023-02-08T14:53:35;3.53;;;2.95;;
12635;SDS011;6383;50.830;7.210;2023-02-08T14:56:13;4.55;;;2.97;;
12635;SDS011;6383;50.830;7.210;2023-02-08T14:58:47;2.92;;;2.65;;
12635;SDS011;6383;50.830;7.210;2023-02-08T15:01:19;4.05;;;3.50;;
12635;SDS011;6383;50.830;7.210;2023-02-08T15:03:53;3.58;;;3.08;;
12635;SDS011;6383;50.830;7.210;2023-02-08T15:09:21;4.75;;;2.72;;
12635;SDS011;6383;50.830;7.210;2023-02-08T15:11:55;5.53;;;3.38;;
12635;SDS011;6383;50.830;7.210;2023-02-08T15:14:29;10.20;;;3.40;;
12635;SDS011;6383;50.830;7.210;2023-02-08T15:17:01;4.47;;;3.70;;
12635;SDS011;6383;50.830;7.210;2023-02-08T15:19:31;5.68;;;3.67;;
12635;SDS011;6383;50.830;7.210;2023-02-08T15:22:18;3.95;;;2.85;;
12635;SDS011;6383;50.830;7.210;2023-02-08T15:24:57;4.88;;;4.03;;
12635;SDS011;6383;50.830;7.210;2023-02-08T15:27:29;8.88;;;5.55;;
12635;SDS011;6383;50.830;7.210;2023-02-08T15:30:02;5.78;;;4.82;;
12635;SDS011;6383;50.830;7.210;2023-02-08T15:32:31;11.32;;;4.70;;
12635;SDS011;6383;50.830;7.210;2023-02-08T15:35:01;4.45;;;3.58;;
12635;SDS011;6383;50.830;7.210;2023-02-08T15:37:32;4.53;;;3.58;;
12635;SDS011;6383;50.830;7.210;2023-02-08T15:40:02;4.43;;;3.67;;
12635;SDS011;6383;50.830;7.210;2023-02-08T15:42:32;4.65;;;3.83;;
12635;SDS011;6383;50.830;7.210;2023-02-08T15:45:18;6.20;;;4.00;;
12635;SDS011;6383;50.830;7.210;2023-02-08T15:47:49;5.03;;;3.53;;
12635;SDS011;6383;50.830;7.210;2023-02-08T15:50:20;5.10;;;3.65;;
12635;SDS011;6383;50.830;7.210;2023-02-08T15:52:53;6.22;;;3.80;;
12635;SDS011;6383;50.830;7.210;2023-02-08T15:55:26;4.47;;;3.17;;
12635;SDS011;6383;50.830;7.210;2023-02-08T15:57:58;5.90;;;3.63;;
12635;SDS011;6383;50.830;7.210;2023-02-08T16:00:31;5.82;;;3.92;;
12635;SDS011;6383;50.830;7.210;2023-02-08T16:03:03;7.65;;;3.38;;
12635;SDS011;6383;50.830;7.210;2023-02-08T16:05:35;6.38;;;3.78;;
12635;SDS011;6383;50.830;7.210;2023-02-08T16:08:05;5.88;;;3.95;;
12635;SDS011;6383;50.830;7.210;2023-02-08T16:10:38;4.82;;;3.38;;
12635;SDS011;6383;50.830;7.210;2023-02-08T16:13:13;6.65;;;4.47;;
12635;SDS011;6383;50.830;7.210;2023-02-08T16:15:49;6.53;;;4.88;;